Time;durP1;ratioP1;P1;durP2;ratioP2;P2;SDS_P1;SDS_P2;PMS_P1;PMS_P2;Temp;Humidity;BMP_temperature;BMP_pressure;BME280_temperature;BME280_humidity;BME280_pressure;Samples;Min_cycle;Max_cycle;Signal;HPM_P1;HPM_P2
2022/04/27 00:01:38;;;;;;;;;;;4.80;99.90;;;;;;5064578;28;19929;-76
2022/04/27 00:04:05;;;;;;;;;;;4.60;99.90;;;;;;5058244;28;19928;-76
2022/04/27 00:06:32;;;;;;;;;;;4.60;99.90;;;;;;5065392;28;20421;-76
2022/04/27 00:08:58;;;;;;;;;;;4.50;99.90;;;;;;5068127;28;19924;-76
2022/04/27 00:11:25;;;;;;;;;;;4.50;99.90;;;;;;5063848;28;19939;-76
2022/04/27 00:13:51;;;;;;;;;;;4.40;99.90;;;;;;5062183;28;19955;-75
2022/04/27 00:16:21;;;;;;;;;;;4.30;99.90;;;;;;5061662;28;19937;-75
2022/04/27 00:18:48;;;;;;;;;;;4.20;99.90;;;;;;5062819;28;19928;-76
2022/04/27 00:21:14;;;;;;;;;;;4.20;99.90;;;;;;5067654;28;20199;-76
2022/04/27 00:23:41;;;;;;;;;;;4.10;99.90;;;;;;5063798;28;20394;-76
2022/04/27 00:26:07;;;;;;;;;;;4.00;99.90;;;;;;5063848;28;19920;-75
2022/04/27 00:28:35;;;;;;;;;;;4.00;99.90;;;;;;5066638;28;19924;-77
2022/04/27 00:31:01;;;;;;;;;;;3.90;99.90;;;;;;5070566;28;19921;-76
2022/04/27 00:33:28;;;;;;;;;;;3.80;99.90;;;;;;5066315;28;19963;-76
2022/04/27 00:35:55;;;;;;;;;;;3.70;99.90;;;;;;5073918;28;19924;-77
2022/04/27 00:38:21;;;;;;;;;;;3.70;99.90;;;;;;5066379;28;19919;-77
2022/04/27 00:40:48;;;;;;;;;;;3.60;99.90;;;;;;5073526;28;19935;-76
2022/04/27 00:43:15;;;;;;;;;;;3.50;99.90;;;;;;5069943;28;20305;-76
2022/04/27 00:45:41;;;;;;;;;;;3.40;99.90;;;;;;5069900;28;20180;-77
2022/04/27 00:48:09;;;;;;;;;;;3.40;99.90;;;;;;5070447;28;19931;-77
2022/04/27 00:50:36;;;;;;;;;;;3.40;99.90;;;;;;5071522;28;19920;-77
2022/04/27 00:53:03;;;;;;;;;;;3.40;99.90;;;;;;5066070;28;19920;-77
2022/04/27 00:55:30;;;;;;;;;;;3.30;99.90;;;;;;5060611;28;20096;-77
2022/04/27 00:57:59;;;;;;;;;;;3.40;99.90;;;;;;5061900;28;19930;-77
2022/04/27 01:00:26;;;;;;;;;;;3.40;99.90;;;;;;5068261;28;20386;-76
2022/04/27 01:02:53;;;;;;;;;;;3.50;99.90;;;;;;5070691;28;19920;-77
2022/04/27 01:05:21;;;;;;;;;;;3.50;99.90;;;;;;5068692;28;19928;-77
2022/04/27 01:07:50;;;;;;;;;;;3.50;99.90;;;;;;5063716;28;19920;-77
2022/04/27 01:10:19;;;;;;;;;;;3.50;99.90;;;;;;5069567;28;19921;-77
2022/04/27 01:12:46;;;;;;;;;;;3.50;99.90;;;;;;5069738;28;19920;-77
2022/04/27 01:15:28;;;;;;;;;;;3.40;99.90;;;;;;5067462;28;19924;-77
2022/04/27 01:17:57;;;;;;;;;;;3.40;99.90;;;;;;5069911;28;19924;-77
2022/04/27 01:20:24;;;;;;;;;;;3.30;99.90;;;;;;5069023;28;19928;-77
2022/04/27 01:22:50;;;;;;;;;;;3.20;99.90;;;;;;5066911;28;20448;-77
2022/04/27 01:25:17;;;;;;;;;;;3.20;99.90;;;;;;5097836;27;19924;-77
2022/04/27 01:27:46;;;;;;;;;;;3.10;99.90;;;;;;5070970;28;19974;-77
2022/04/27 01:30:12;;;;;;;;;;;3.00;99.90;;;;;;5070822;28;19974;-77
2022/04/27 01:32:39;;;;;;;;;;;3.00;99.90;;;;;;5068519;28;19920;-77
2022/04/27 01:35:06;;;;;;;;;;;3.00;99.90;;;;;;5064445;28;19934;-77
2022/04/27 01:40:18;;;;;;;;;;;2.90;99.90;;;;;;5064665;28;19934;-77
2022/04/27 01:42:44;;;;;;;;;;;3.00;99.90;;;;;;5068259;28;19972;-77
2022/04/27 01:45:11;;;;;;;;;;;3.00;99.90;;;;;;5064609;28;19963;-77
2022/04/27 01:47:40;;;;;;;;;;;2.90;99.90;;;;;;5081477;28;19946;-77
2022/04/27 01:50:07;;;;;;;;;;;2.90;99.90;;;;;;5068466;28;19942;-77
2022/04/27 01:55:21;;;;;;;;;;;2.90;99.90;;;;;;5067062;28;20011;-77
2022/04/27 01:57:53;;;;;;;;;;;3.00;99.90;;;;;;5067128;28;19924;-77
2022/04/27 02:00:21;;;;;;;;;;;3.00;99.90;;;;;;5067777;28;19920;-77
2022/04/27 02:02:48;;;;;;;;;;;2.90;99.90;;;;;;5068349;28;19920;-77
2022/04/27 02:05:15;;;;;;;;;;;2.90;99.90;;;;;;5059469;28;20378;-77
2022/04/27 02:07:43;;;;;;;;;;;2.80;99.90;;;;;;5065995;28;19921;-77
2022/04/27 02:10:09;;;;;;;;;;;2.80;99.90;;;;;;5068144;28;20011;-77
2022/04/27 02:12:38;;;;;;;;;;;2.70;99.90;;;;;;5067035;28;19924;-77
2022/04/27 02:15:06;;;;;;;;;;;2.70;99.90;;;;;;5066330;28;20443;-77
2022/04/27 02:17:33;;;;;;;;;;;2.70;99.90;;;;;;5065431;28;19924;-77
2022/04/27 02:20:00;;;;;;;;;;;2.60;99.90;;;;;;5064647;28;19931;-78
2022/04/27 02:22:26;;;;;;;;;;;2.40;99.90;;;;;;5067538;28;20030;-78
2022/04/27 02:24:53;;;;;;;;;;;2.40;99.90;;;;;;5064088;28;19983;-77
2022/04/27 02:27:20;;;;;;;;;;;2.40;99.90;;;;;;5069347;28;19927;-77
2022/04/27 02:29:46;;;;;;;;;;;2.40;99.90;;;;;;5062917;28;20070;-77
2022/04/27 02:32:15;;;;;;;;;;;2.40;99.90;;;;;;5064754;28;19920;-77
2022/04/27 02:34:42;;;;;;;;;;;2.40;99.90;;;;;;5065885;28;19927;-77
2022/04/27 02:37:09;;;;;;;;;;;2.40;99.90;;;;;;5067159;28;19935;-77
2022/04/27 02:39:35;;;;;;;;;;;2.40;99.90;;;;;;5067831;28;19971;-77
2022/04/27 02:42:03;;;;;;;;;;;2.60;99.90;;;;;;5069141;28;20297;-77
2022/04/27 02:44:29;;;;;;;;;;;2.60;99.90;;;;;;5066542;28;20260;-77
2022/04/27 02:46:56;;;;;;;;;;;2.70;99.90;;;;;;5065537;28;20015;-77
2022/04/27 02:52:08;;;;;;;;;;;2.80;99.90;;;;;;5069045;28;20178;-78
2022/04/27 02:54:35;;;;;;;;;;;2.80;99.90;;;;;;5065849;28;19928;-79
2022/04/27 02:57:06;;;;;;;;;;;2.70;99.90;;;;;;5065653;28;19943;-78
2022/04/27 02:59:33;;;;;;;;;;;2.60;99.90;;;;;;5067820;28;20416;-78
2022/04/27 03:02:00;;;;;;;;;;;2.50;99.90;;;;;;5055091;28;19921;-78
2022/04/27 03:04:27;;;;;;;;;;;2.40;99.90;;;;;;5095805;28;20015;-78
2022/04/27 03:06:53;;;;;;;;;;;2.30;99.90;;;;;;5065194;28;19978;-78
2022/04/27 03:09:20;;;;;;;;;;;2.30;99.90;;;;;;5068198;28;19923;-78
2022/04/27 03:11:47;;;;;;;;;;;2.20;99.90;;;;;;5060871;28;19924;-78
2022/04/27 03:14:15;;;;;;;;;;;2.10;99.90;;;;;;5067223;28;19924;-78
2022/04/27 03:16:42;;;;;;;;;;;2.00;99.90;;;;;;5088862;28;19927;-78
2022/04/27 03:19:08;;;;;;;;;;;2.00;99.90;;;;;;5069755;28;19938;-78
2022/04/27 03:21:35;;;;;;;;;;;1.90;99.90;;;;;;5065766;28;19924;-79
2022/04/27 03:24:02;;;;;;;;;;;1.90;99.90;;;;;;5064557;28;19934;-78
2022/04/27 03:26:28;;;;;;;;;;;1.80;99.90;;;;;;5065660;28;19924;-78
2022/04/27 03:28:55;;;;;;;;;;;1.80;99.90;;;;;;5066146;28;20251;-76
2022/04/27 03:31:21;;;;;;;;;;;1.70;99.90;;;;;;5064017;28;20375;-77
2022/04/27 03:33:48;;;;;;;;;;;1.70;99.90;;;;;;5067873;28;20551;-77
2022/04/27 03:36:15;;;;;;;;;;;1.70;99.90;;;;;;5062153;28;19924;-76
2022/04/27 03:38:43;;;;;;;;;;;1.70;99.90;;;;;;5062402;28;19928;-77
2022/04/27 03:41:10;;;;;;;;;;;1.80;99.90;;;;;;5064455;28;19947;-76
2022/04/27 03:43:36;;;;;;;;;;;1.90;99.90;;;;;;5060646;28;19927;-77
2022/04/27 03:46:03;;;;;;;;;;;2.00;99.90;;;;;;5064349;28;19920;-77
2022/04/27 03:48:30;;;;;;;;;;;2.00;99.90;;;;;;5064571;28;19920;-77
2022/04/27 03:50:56;;;;;;;;;;;2.00;99.90;;;;;;5062276;28;20407;-77
2022/04/27 03:53:23;;;;;;;;;;;2.00;99.90;;;;;;5061581;28;19928;-77
2022/04/27 03:55:50;;;;;;;;;;;2.00;99.90;;;;;;5063267;28;19927;-77
2022/04/27 03:58:16;;;;;;;;;;;2.10;99.90;;;;;;5066339;28;19944;-77
2022/04/27 04:00:45;;;;;;;;;;;2.00;99.90;;;;;;5059204;28;19928;-77
2022/04/27 04:03:12;;;;;;;;;;;2.00;99.90;;;;;;5059082;28;19921;-77
2022/04/27 04:05:45;;;;;;;;;;;1.90;99.90;;;;;;5056343;28;20011;-77
2022/04/27 04:08:11;;;;;;;;;;;1.90;99.90;;;;;;5062519;28;20268;-77
2022/04/27 04:10:38;;;;;;;;;;;1.90;99.90;;;;;;5066867;28;19927;-77
2022/04/27 04:13:04;;;;;;;;;;;1.90;99.90;;;;;;5062557;28;19921;-77
2022/04/27 04:15:32;;;;;;;;;;;2.00;99.90;;;;;;5055823;28;19920;-77
2022/04/27 04:18:02;;;;;;;;;;;2.10;99.90;;;;;;5068896;28;19926;-77
2022/04/27 04:20:28;;;;;;;;;;;2.00;99.90;;;;;;5064125;28;20002;-77
2022/04/27 04:22:55;;;;;;;;;;;2.00;99.90;;;;;;5094786;28;19920;-77
2022/04/27 04:30:52;;;;;;;;;;;1.80;99.90;;;;;;5062013;28;19920;-77
2022/04/27 04:33:19;;;;;;;;;;;1.80;99.90;;;;;;5061887;28;19920;-77
2022/04/27 04:35:46;;;;;;;;;;;1.80;99.90;;;;;;5062837;28;19924;-77
2022/04/27 04:38:13;;;;;;;;;;;1.90;99.90;;;;;;5062664;28;19920;-77
2022/04/27 04:40:40;;;;;;;;;;;2.10;99.90;;;;;;5065381;28;20382;-77
2022/04/27 04:43:07;;;;;;;;;;;2.40;99.90;;;;;;5065719;28;20066;-77
2022/04/27 04:45:33;;;;;;;;;;;2.60;99.90;;;;;;5065462;28;19936;-77
2022/04/27 04:48:08;;;;;;;;;;;2.70;99.90;;;;;;5064430;28;19970;-77
2022/04/27 04:50:36;;;;;;;;;;;2.80;99.90;;;;;;5059211;28;19920;-77
2022/04/27 04:53:03;;;;;;;;;;;2.90;99.90;;;;;;5061678;28;19920;-77
2022/04/27 04:55:30;;;;;;;;;;;3.00;99.90;;;;;;5067320;28;19921;-77
2022/04/27 04:57:57;;;;;;;;;;;3.10;99.90;;;;;;5064740;28;19920;-77
2022/04/27 05:00:24;;;;;;;;;;;3.20;99.90;;;;;;5065884;28;19926;-77
2022/04/27 05:02:51;;;;;;;;;;;3.30;99.90;;;;;;5061383;28;19935;-77
2022/04/27 05:05:18;;;;;;;;;;;3.40;99.90;;;;;;5068043;28;19920;-77
2022/04/27 05:07:47;;;;;;;;;;;3.40;99.90;;;;;;5066199;28;19920;-77
2022/04/27 05:10:14;;;;;;;;;;;3.40;99.90;;;;;;5058919;28;19927;-77
2022/04/27 05:12:41;;;;;;;;;;;3.30;99.90;;;;;;5058050;28;19920;-77
2022/04/27 05:15:11;;;;;;;;;;;3.30;99.90;;;;;;5071042;28;19920;-77
2022/04/27 05:17:39;;;;;;;;;;;3.30;99.90;;;;;;5064902;28;19920;-77
2022/04/27 05:20:07;;;;;;;;;;;3.40;99.90;;;;;;5069707;28;19932;-77
2022/04/27 05:22:35;;;;;;;;;;;3.50;99.90;;;;;;5062180;28;20383;-77
2022/04/27 05:25:02;;;;;;;;;;;3.70;99.90;;;;;;5063243;28;19920;-77
2022/04/27 05:27:31;;;;;;;;;;;3.90;99.90;;;;;;5067295;28;20887;-77
2022/04/27 05:32:44;;;;;;;;;;;4.20;99.90;;;;;;5064736;28;19932;-77
2022/04/27 05:35:10;;;;;;;;;;;4.40;99.90;;;;;;5071209;28;20003;-77
2022/04/27 05:37:37;;;;;;;;;;;4.60;99.90;;;;;;5068744;28;19939;-77
2022/04/27 05:40:05;;;;;;;;;;;4.70;99.90;;;;;;5071708;28;19920;-77
2022/04/27 05:42:31;;;;;;;;;;;5.00;99.90;;;;;;5070628;28;19921;-74
2022/04/27 05:44:58;;;;;;;;;;;5.80;99.90;;;;;;5069218;28;19927;-75
2022/04/27 05:47:25;;;;;;;;;;;6.70;99.90;;;;;;5057981;28;19920;-75
2022/04/27 05:49:52;;;;;;;;;;;7.60;99.90;;;;;;5064792;28;20081;-75
2022/04/27 05:52:20;;;;;;;;;;;8.40;99.90;;;;;;5069948;28;19931;-76
2022/04/27 05:54:51;;;;;;;;;;;9.40;99.90;;;;;;5066637;28;19942;-76
2022/04/27 05:57:18;;;;;;;;;;;10.20;99.90;;;;;;5068339;28;19920;-75
2022/04/27 05:59:45;;;;;;;;;;;11.10;99.90;;;;;;5060983;28;20131;-75
2022/04/27 06:02:12;;;;;;;;;;;11.80;99.90;;;;;;5061431;28;19927;-75
2022/04/27 06:04:39;;;;;;;;;;;12.30;99.90;;;;;;5068728;28;19936;-75
2022/04/27 06:07:07;;;;;;;;;;;12.60;99.90;;;;;;5068874;28;19926;-75
2022/04/27 06:09:36;;;;;;;;;;;13.10;99.90;;;;;;5070449;28;20318;-75
2022/04/27 06:12:05;;;;;;;;;;;13.40;99.90;;;;;;5070373;28;20408;-74
2022/04/27 06:14:32;;;;;;;;;;;13.40;99.90;;;;;;5068593;28;19927;-74
2022/04/27 06:17:02;;;;;;;;;;;13.40;99.90;;;;;;5065921;28;20023;-74
2022/04/27 06:19:28;;;;;;;;;;;13.60;99.90;;;;;;5069940;28;19942;-73
2022/04/27 06:21:55;;;;;;;;;;;14.30;99.90;;;;;;5070242;28;19920;-74
2022/04/27 06:24:22;;;;;;;;;;;15.00;99.90;;;;;;5069036;28;19927;-74
2022/04/27 06:26:48;;;;;;;;;;;15.50;99.90;;;;;;5061237;28;19939;-74
2022/04/27 06:29:15;;;;;;;;;;;15.90;99.90;;;;;;5065060;28;19920;-74
2022/04/27 06:31:41;;;;;;;;;;;16.10;99.90;;;;;;5068551;28;19920;-74
2022/04/27 06:34:08;;;;;;;;;;;16.20;99.90;;;;;;5068794;28;19942;-75
2022/04/27 06:36:36;;;;;;;;;;;16.60;99.90;;;;;;5067302;28;19928;-75
2022/04/27 06:39:04;;;;;;;;;;;16.80;99.90;;;;;;5061578;28;19920;-75
2022/04/27 06:41:31;;;;;;;;;;;16.80;99.90;;;;;;5067137;28;20405;-75
2022/04/27 06:43:58;;;;;;;;;;;16.60;99.90;;;;;;5061728;28;19920;-75
2022/04/27 06:46:24;;;;;;;;;;;16.90;99.90;;;;;;5063791;28;20399;-75
2022/04/27 06:48:51;;;;;;;;;;;16.90;99.90;;;;;;5058812;28;20008;-75
2022/04/27 06:51:18;;;;;;;;;;;16.70;99.90;;;;;;5057360;28;19921;-75
2022/04/27 06:53:45;;;;;;;;;;;16.30;99.90;;;;;;5074425;28;20022;-74
2022/04/27 06:56:12;;;;;;;;;;;16.30;99.90;;;;;;5063658;28;20222;-75
2022/04/27 06:58:38;;;;;;;;;;;16.50;99.90;;;;;;5069227;28;19920;-74
2022/04/27 07:01:06;;;;;;;;;;;16.20;99.90;;;;;;5069613;28;19930;-74
2022/04/27 07:03:33;;;;;;;;;;;16.00;99.90;;;;;;5068259;28;19920;-74
2022/04/27 07:06:00;;;;;;;;;;;15.70;99.90;;;;;;5069050;28;19926;-75
2022/04/27 07:08:28;;;;;;;;;;;16.30;99.90;;;;;;5069137;28;19939;-75
2022/04/27 07:10:55;;;;;;;;;;;16.90;99.90;;;;;;5065620;28;19921;-75
2022/04/27 07:13:23;;;;;;;;;;;16.60;99.90;;;;;;5069048;28;19920;-75
2022/04/27 07:15:50;;;;;;;;;;;17.00;99.90;;;;;;5068231;28;19920;-75
2022/04/27 07:18:16;;;;;;;;;;;17.40;99.90;;;;;;5065649;28;19935;-75
2022/04/27 07:20:43;;;;;;;;;;;17.80;99.90;;;;;;5068724;28;20021;-75
2022/04/27 07:23:12;;;;;;;;;;;17.90;99.90;;;;;;5060843;28;19920;-75
2022/04/27 07:25:41;;;;;;;;;;;18.00;99.90;;;;;;5058750;28;20300;-74
2022/04/27 07:28:08;;;;;;;;;;;18.10;99.90;;;;;;5068713;28;19924;-74
2022/04/27 07:30:35;;;;;;;;;;;17.70;99.90;;;;;;5067977;28;19946;-75
2022/04/27 07:33:01;;;;;;;;;;;17.10;99.90;;;;;;5063826;28;19920;-75
2022/04/27 07:35:28;;;;;;;;;;;16.70;99.90;;;;;;5068280;28;19920;-75
2022/04/27 07:38:02;;;;;;;;;;;17.10;99.90;;;;;;5066988;28;19920;-75
2022/04/27 07:40:29;;;;;;;;;;;17.00;99.90;;;;;;5067623;28;19927;-75
2022/04/27 07:42:55;;;;;;;;;;;17.20;99.90;;;;;;5068920;28;19930;-75
2022/04/27 07:45:22;;;;;;;;;;;16.90;99.90;;;;;;5061230;28;20442;-75
2022/04/27 07:47:48;;;;;;;;;;;16.50;99.90;;;;;;5063171;28;19920;-74
2022/04/27 07:50:16;;;;;;;;;;;16.10;99.90;;;;;;5068930;28;19920;-74
2022/04/27 07:52:43;;;;;;;;;;;15.90;99.90;;;;;;5051624;28;19963;-74
2022/04/27 07:55:10;;;;;;;;;;;15.70;99.90;;;;;;5067563;28;19930;-74
2022/04/27 07:57:37;;;;;;;;;;;15.30;99.90;;;;;;5064426;28;19966;-74
2022/04/27 08:00:05;;;;;;;;;;;15.70;99.90;;;;;;5068719;28;19924;-74
2022/04/27 08:02:32;;;;;;;;;;;16.20;99.90;;;;;;5068422;28;19926;-74
2022/04/27 08:05:00;;;;;;;;;;;16.80;99.90;;;;;;5050653;28;19990;-74
2022/04/27 08:07:33;;;;;;;;;;;16.70;99.90;;;;;;5049843;28;19927;-76
2022/04/27 08:10:04;;;;;;;;;;;16.80;99.90;;;;;;5059149;28;20286;-75
2022/04/27 08:12:31;;;;;;;;;;;17.50;99.90;;;;;;5066374;28;19935;-76
2022/04/27 08:15:01;;;;;;;;;;;17.70;99.90;;;;;;5067979;28;19931;-75
2022/04/27 08:17:27;;;;;;;;;;;17.50;99.90;;;;;;5067100;28;19924;-76
2022/04/27 08:21:13;;;;;;;;;;;17.30;99.90;;;;;;5066342;28;20023;-76
2022/04/27 08:22:40;;;;;;;;;;;17.40;99.90;;;;;;5067014;28;20295;-76
2022/04/27 08:25:07;;;;;;;;;;;18.00;99.90;;;;;;5067590;28;19925;-76
2022/04/27 08:27:36;;;;;;;;;;;17.90;99.90;;;;;;5066545;28;20030;-75
2022/04/27 08:30:03;;;;;;;;;;;17.80;99.90;;;;;;5063574;28;19920;-76
2022/04/27 08:32:29;;;;;;;;;;;17.80;99.90;;;;;;5058807;28;19920;-76
2022/04/27 08:34:56;;;;;;;;;;;18.20;99.90;;;;;;5061888;28;19928;-75
2022/04/27 08:37:23;;;;;;;;;;;17.90;99.90;;;;;;5067666;28;19927;-76
2022/04/27 08:39:49;;;;;;;;;;;17.50;99.90;;;;;;5064400;28;19951;-76
2022/04/27 08:42:16;;;;;;;;;;;17.50;99.90;;;;;;5063722;28;19920;-75
2022/04/27 08:44:42;;;;;;;;;;;17.60;99.90;;;;;;5065352;28;19934;-75
2022/04/27 08:47:09;;;;;;;;;;;17.70;99.90;;;;;;5064375;28;19931;-76
2022/04/27 08:49:36;;;;;;;;;;;17.60;99.90;;;;;;5069523;28;20011;-73
2022/04/27 08:52:03;;;;;;;;;;;17.30;99.90;;;;;;5071350;28;20200;-74
2022/04/27 08:54:32;;;;;;;;;;;17.30;99.90;;;;;;5068469;28;19945;-75
2022/04/27 08:57:03;;;;;;;;;;;17.60;99.90;;;;;;5056351;28;19920;-75
2022/04/27 08:59:30;;;;;;;;;;;17.90;99.90;;;;;;5069629;28;20246;-75
2022/04/27 09:02:19;;;;;;;;;;;18.20;99.90;;;;;;5069266;28;20230;-74
2022/04/27 09:05:04;;;;;;;;;;;18.20;99.90;;;;;;5054668;28;19943;-74
2022/04/27 09:07:50;;;;;;;;;;;18.40;99.90;;;;;;5071387;28;19920;-75
2022/04/27 09:10:24;;;;;;;;;;;18.30;99.90;;;;;;5067152;28;19931;-74
2022/04/27 09:12:52;;;;;;;;;;;18.50;99.90;;;;;;5068971;28;20003;-74
2022/04/27 09:15:19;;;;;;;;;;;18.60;99.90;;;;;;5069104;28;20247;-75
2022/04/27 09:20:52;;;;;;;;;;;18.50;99.90;;;;;;5068038;28;21115;-75
2022/04/27 09:23:22;;;;;;;;;;;19.00;99.90;;;;;;5063906;28;20143;-75
2022/04/27 09:25:51;;;;;;;;;;;19.20;99.90;;;;;;5070025;28;19924;-75
2022/04/27 09:28:33;;;;;;;;;;;18.50;99.90;;;;;;5071295;28;19921;-74
2022/04/27 09:31:00;;;;;;;;;;;18.30;99.90;;;;;;5072642;28;19936;-73
2022/04/27 09:33:37;;;;;;;;;;;18.00;99.90;;;;;;5071139;28;19920;-75
2022/04/27 09:36:19;;;;;;;;;;;18.10;99.90;;;;;;5059421;28;20287;-76
2022/04/27 09:38:45;;;;;;;;;;;18.10;99.90;;;;;;5066814;28;19921;-75
2022/04/27 09:41:12;;;;;;;;;;;18.20;99.90;;;;;;5068565;28;19943;-75
2022/04/27 09:43:41;;;;;;;;;;;18.40;99.90;;;;;;5069354;28;19920;-76
2022/04/27 09:46:17;;;;;;;;;;;18.80;99.90;;;;;;5071514;28;19925;-75
2022/04/27 09:48:47;;;;;;;;;;;19.00;99.90;;;;;;5070598;28;19935;-75
2022/04/27 09:51:14;;;;;;;;;;;19.10;99.90;;;;;;5068784;28;19920;-75
2022/04/27 09:53:42;;;;;;;;;;;19.40;99.90;;;;;;5069520;28;19936;-74
2022/04/27 09:56:14;;;;;;;;;;;19.90;99.90;;;;;;5067688;28;20217;-75
2022/04/27 09:58:47;;;;;;;;;;;20.70;99.90;;;;;;5063200;28;20386;-76
2022/04/27 10:01:15;;;;;;;;;;;21.70;99.90;;;;;;5070526;28;19993;-77
2022/04/27 10:03:47;;;;;;;;;;;22.00;99.90;;;;;;5067738;28;19973;-75
2022/04/27 10:06:14;;;;;;;;;;;21.90;99.90;;;;;;5060622;28;19926;-75
2022/04/27 10:08:41;;;;;;;;;;;22.30;99.90;;;;;;5065138;28;19921;-75
2022/04/27 10:11:10;;;;;;;;;;;22.70;99.90;;;;;;5068143;28;20295;-76
2022/04/27 10:13:36;;;;;;;;;;;22.30;99.90;;;;;;5068711;28;19928;-76
2022/04/27 10:16:03;;;;;;;;;;;22.30;99.90;;;;;;5061085;28;19920;-75
2022/04/27 10:18:31;;;;;;;;;;;22.40;99.90;;;;;;5065529;28;19928;-76
2022/04/27 10:21:01;;;;;;;;;;;22.40;99.90;;;;;;5062649;28;20190;-76
2022/04/27 10:23:31;;;;;;;;;;;22.00;99.90;;;;;;5067126;28;19987;-76
2022/04/27 10:26:07;;;;;;;;;;;22.30;99.90;;;;;;5066523;28;20390;-75
2022/04/27 10:28:36;;;;;;;;;;;22.30;99.90;;;;;;5069166;28;19920;-75
2022/04/27 10:31:07;;;;;;;;;;;21.80;99.90;;;;;;5059879;28;20408;-75
2022/04/27 10:33:39;;;;;;;;;;;21.00;99.90;;;;;;5064033;28;19932;-73
2022/04/27 10:36:21;;;;;;;;;;;20.90;99.90;;;;;;5054505;28;19927;-75
2022/04/27 10:39:06;;;;;;;;;;;21.50;99.90;;;;;;5062175;28;20271;-75
2022/04/27 10:41:33;;;;;;;;;;;21.90;99.90;;;;;;5102096;28;20134;-76
2022/04/27 10:44:02;;;;;;;;;;;22.20;99.90;;;;;;5069277;28;19999;-75
2022/04/27 10:46:41;;;;;;;;;;;22.00;99.90;;;;;;5069570;28;19963;-73
2022/04/27 10:49:25;;;;;;;;;;;21.50;99.90;;;;;;5068108;28;19935;-76
2022/04/27 10:52:01;;;;;;;;;;;21.50;99.90;;;;;;5063215;28;19921;-76
2022/04/27 10:54:31;;;;;;;;;;;21.90;99.90;;;;;;5068322;28;20460;-75
2022/04/27 10:57:15;;;;;;;;;;;22.20;99.90;;;;;;5061288;28;20291;-76
2022/04/27 11:00:05;;;;;;;;;;;22.40;99.90;;;;;;5065258;28;19921;-76
2022/04/27 11:02:53;;;;;;;;;;;22.40;99.90;;;;;;5063483;28;20231;-75
2022/04/27 11:05:22;;;;;;;;;;;22.50;99.90;;;;;;5068038;28;19920;-76
2022/04/27 11:08:01;;;;;;;;;;;23.20;99.90;;;;;;5058781;28;19928;-76
2022/04/27 11:10:27;;;;;;;;;;;23.20;99.90;;;;;;5067412;28;19946;-76
2022/04/27 11:12:56;;;;;;;;;;;23.00;99.90;;;;;;5068907;28;19931;-75
2022/04/27 11:15:26;;;;;;;;;;;22.70;99.90;;;;;;5069906;28;20283;-75
2022/04/27 11:17:56;;;;;;;;;;;21.30;99.90;;;;;;5068387;28;19927;-75
2022/04/27 11:20:25;;;;;;;;;;;20.90;99.90;;;;;;5057577;28;19924;-75
2022/04/27 11:22:51;;;;;;;;;;;20.30;99.90;;;;;;5058601;28;20434;-74
2022/04/27 11:25:28;;;;;;;;;;;19.50;99.90;;;;;;5069209;28;20598;-75
2022/04/27 11:28:11;;;;;;;;;;;19.50;99.90;;;;;;5059851;28;19931;-74
2022/04/27 11:30:38;;;;;;;;;;;20.60;99.90;;;;;;5062811;28;19921;-74
2022/04/27 11:33:05;;;;;;;;;;;20.80;99.90;;;;;;5068634;28;19924;-75
2022/04/27 11:35:38;;;;;;;;;;;20.60;99.90;;;;;;5069721;28;19974;-75
2022/04/27 11:38:06;;;;;;;;;;;20.90;99.90;;;;;;5063868;28;19924;-75
2022/04/27 11:40:36;;;;;;;;;;;21.70;99.90;;;;;;5074921;28;19938;-74
2022/04/27 11:43:04;;;;;;;;;;;21.70;99.90;;;;;;5065651;28;19920;-75
2022/04/27 11:45:31;;;;;;;;;;;21.80;99.90;;;;;;5066229;28;19920;-75
2022/04/27 11:48:04;;;;;;;;;;;22.00;99.90;;;;;;5068161;28;20011;-75
2022/04/27 11:50:34;;;;;;;;;;;22.10;99.90;;;;;;5066647;28;19931;-75
2022/04/27 11:53:04;;;;;;;;;;;21.50;99.80;;;;;;5067665;28;19927;-75
2022/04/27 11:55:32;;;;;;;;;;;21.30;99.70;;;;;;5067436;28;20318;-75
2022/04/27 11:57:59;;;;;;;;;;;20.80;99.20;;;;;;5068160;28;19935;-75
2022/04/27 12:00:27;;;;;;;;;;;20.50;99.80;;;;;;5064844;28;20173;-75
2022/04/27 12:03:03;;;;;;;;;;;20.50;99.90;;;;;;5066762;28;20279;-74
2022/04/27 12:05:38;;;;;;;;;;;20.30;98.90;;;;;;5060455;28;19956;-75
2022/04/27 12:08:09;;;;;;;;;;;20.10;98.30;;;;;;5059522;28;20523;-75
2022/04/27 12:10:42;;;;;;;;;;;19.30;98.20;;;;;;5063772;28;19920;-75
2022/04/27 12:13:09;;;;;;;;;;;19.20;98.60;;;;;;5067492;28;20421;-75
2022/04/27 12:15:39;;;;;;;;;;;19.40;98.60;;;;;;5051418;28;19939;-74
2022/04/27 12:18:15;;;;;;;;;;;20.00;98.70;;;;;;5058861;28;19921;-74
2022/04/27 12:20:46;;;;;;;;;;;20.50;98.30;;;;;;5065238;28;19924;-74
2022/04/27 12:23:12;;;;;;;;;;;20.60;98.30;;;;;;5069680;28;19921;-74
2022/04/27 12:25:43;;;;;;;;;;;21.30;98.30;;;;;;5055981;28;19931;-73
2022/04/27 12:28:14;;;;;;;;;;;21.30;94.80;;;;;;5069222;28;20422;-73
2022/04/27 12:31:00;;;;;;;;;;;20.50;95.90;;;;;;5070478;28;19926;-74
2022/04/27 12:33:29;;;;;;;;;;;19.60;97.40;;;;;;5062712;28;20210;-74
2022/04/27 12:39:03;;;;;;;;;;;18.50;97.40;;;;;;5066385;28;19935;-74
2022/04/27 12:41:32;;;;;;;;;;;18.40;97.80;;;;;;5053523;28;19954;-74
2022/04/27 12:44:05;;;;;;;;;;;18.70;98.00;;;;;;5071901;28;19931;-74
2022/04/27 12:46:56;;;;;;;;;;;19.80;96.80;;;;;;5069560;28;19986;-75
2022/04/27 12:49:26;;;;;;;;;;;21.10;95.30;;;;;;5069033;28;20405;-75
2022/04/27 12:51:52;;;;;;;;;;;21.90;94.10;;;;;;5071711;28;19926;-73
2022/04/27 12:54:19;;;;;;;;;;;22.00;94.20;;;;;;5063196;28;19931;-74
2022/04/27 12:56:46;;;;;;;;;;;22.30;95.10;;;;;;5060907;28;19921;-74
2022/04/27 12:59:13;;;;;;;;;;;22.90;94.10;;;;;;5068433;28;19921;-74
2022/04/27 13:01:56;;;;;;;;;;;23.30;93.70;;;;;;5069018;28;20410;-75
2022/04/27 13:04:25;;;;;;;;;;;24.00;93.40;;;;;;5058617;28;19920;-74
2022/04/27 13:06:52;;;;;;;;;;;24.40;94.10;;;;;;5071125;28;19952;-74
2022/04/27 13:12:08;;;;;;;;;;;22.90;92.90;;;;;;5071431;28;19928;-75
2022/04/27 13:14:40;;;;;;;;;;;21.90;94.00;;;;;;5071345;28;20109;-74
2022/04/27 13:17:09;;;;;;;;;;;21.40;94.60;;;;;;5066445;28;19924;-75
2022/04/27 13:19:36;;;;;;;;;;;21.00;95.10;;;;;;5064455;28;19928;-74
2022/04/27 13:22:04;;;;;;;;;;;20.90;95.30;;;;;;5069672;28;19947;-74
2022/04/27 13:24:30;;;;;;;;;;;21.10;95.20;;;;;;5071670;28;20289;-75
2022/04/27 13:27:18;;;;;;;;;;;22.00;94.40;;;;;;5066564;28;19995;-75
2022/04/27 13:29:45;;;;;;;;;;;23.00;93.20;;;;;;5058814;28;19927;-75
2022/04/27 13:32:12;;;;;;;;;;;23.40;93.60;;;;;;5070544;28;19928;-75
2022/04/27 13:34:38;;;;;;;;;;;23.80;93.10;;;;;;5068986;28;20378;-75
2022/04/27 13:37:05;;;;;;;;;;;24.30;92.00;;;;;;5063398;28;19920;-75
2022/04/27 13:39:31;;;;;;;;;;;24.40;92.30;;;;;;5069123;28;19920;-74
2022/04/27 13:41:59;;;;;;;;;;;23.60;92.30;;;;;;5068438;28;19924;-74
2022/04/27 13:44:28;;;;;;;;;;;22.70;92.60;;;;;;5070566;28;19926;-75
2022/04/27 13:46:55;;;;;;;;;;;22.10;93.30;;;;;;5067615;28;19924;-75
2022/04/27 13:49:26;;;;;;;;;;;21.70;93.20;;;;;;5057759;28;19932;-74
2022/04/27 13:51:53;;;;;;;;;;;21.70;93.40;;;;;;5062060;28;19964;-75
2022/04/27 13:54:20;;;;;;;;;;;21.60;93.70;;;;;;5051488;28;19924;-75
2022/04/27 13:56:46;;;;;;;;;;;21.80;93.60;;;;;;5062094;28;20011;-74
2022/04/27 13:59:13;;;;;;;;;;;21.80;93.70;;;;;;5070536;28;20504;-74
2022/04/27 14:01:42;;;;;;;;;;;21.80;93.60;;;;;;5069527;28;19960;-74
2022/04/27 14:04:09;;;;;;;;;;;21.90;93.40;;;;;;5070883;28;20279;-75
2022/04/27 14:06:42;;;;;;;;;;;21.30;93.70;;;;;;5068997;28;19920;-75
2022/04/27 14:09:09;;;;;;;;;;;21.30;94.40;;;;;;5054627;28;19924;-76
2022/04/27 14:14:21;;;;;;;;;;;22.50;93.00;;;;;;5070674;28;19925;-74
2022/04/27 14:19:34;;;;;;;;;;;22.60;93.00;;;;;;5068138;28;19934;-74
2022/04/27 14:22:04;;;;;;;;;;;23.20;93.40;;;;;;5060007;28;20337;-75
2022/04/27 14:24:31;;;;;;;;;;;22.70;93.10;;;;;;5065225;28;19921;-74
2022/04/27 14:27:00;;;;;;;;;;;22.00;94.10;;;;;;5070125;28;19963;-74
2022/04/27 14:29:27;;;;;;;;;;;21.20;95.20;;;;;;5070052;28;19920;-75
2022/04/27 14:31:58;;;;;;;;;;;20.90;95.00;;;;;;5068375;28;20397;-74
2022/04/27 14:34:30;;;;;;;;;;;20.80;95.10;;;;;;5075826;28;19921;-74
2022/04/27 14:36:57;;;;;;;;;;;20.30;95.40;;;;;;5068146;28;20426;-74
2022/04/27 14:39:25;;;;;;;;;;;19.60;96.60;;;;;;5071262;28;19923;-74
2022/04/27 14:41:53;;;;;;;;;;;19.20;96.40;;;;;;5070058;28;19927;-74
2022/04/27 14:44:20;;;;;;;;;;;18.80;97.40;;;;;;5060271;28;19960;-74
2022/04/27 14:46:47;;;;;;;;;;;18.80;98.10;;;;;;5063269;28;20382;-74
2022/04/27 14:49:15;;;;;;;;;;;18.70;98.10;;;;;;5067380;28;19928;-74
2022/04/27 14:51:42;;;;;;;;;;;19.00;98.40;;;;;;5072178;28;19927;-75
2022/04/27 14:54:09;;;;;;;;;;;19.50;97.40;;;;;;5055568;28;19924;-74
2022/04/27 14:56:40;;;;;;;;;;;20.20;97.10;;;;;;5051774;28;20226;-75
2022/04/27 14:59:07;;;;;;;;;;;20.60;96.80;;;;;;5069455;28;20007;-75
2022/04/27 15:01:34;;;;;;;;;;;20.80;96.30;;;;;;5066867;28;19920;-75